sensor_id;sensor_type;location;lat;lon;timestamp;pressure;altitude;pressure_sealevel;temperature;humidity
22753;BME280;11543;43.144;24.684;2023-02-16T00:01:33;100246.59;;;5.07;68.79
22753;BME280;11543;43.144;24.684;2023-02-16T00:04:00;100228.31;;;5.01;68.59
22753;BME280;11543;43.144;24.684;2023-02-16T00:06:27;100202.22;;;4.92;67.70
22753;BME280;11543;43.144;24.684;2023-02-16T00:08:55;100240.16;;;5.11;67.82
22753;BME280;11543;43.144;24.684;2023-02-16T00:11:27;100217.25;;;4.93;68.22
22753;BME280;11543;43.144;24.684;2023-02-16T00:14:14;100214.25;;;4.84;68.39
22753;BME280;11543;43.144;24.684;2023-02-16T00:16:39;100224.00;;;4.83;68.43
22753;BME280;11543;43.144;24.684;2023-02-16T00:21:53;100214.91;;;4.87;68.60
22753;BME280;11543;43.144;24.684;2023-02-16T00:24:19;100201.03;;;4.82;68.02
22753;BME280;11543;43.144;24.684;2023-02-16T00:26:46;100239.13;;;4.98;68.32
22753;BME280;11543;43.144;24.684;2023-02-16T00:29:25;100229.84;;;4.74;67.99
22753;BME280;11543;43.144;24.684;2023-02-16T00:31:52;100242.34;;;4.56;68.25
22753;BME280;11543;43.144;24.684;2023-02-16T00:34:38;100245.28;;;4.34;68.53
22753;BME280;11543;43.144;24.684;2023-02-16T00:37:09;100197.69;;;3.97;68.88
22753;BME280;11543;43.144;24.684;2023-02-16T00:39:35;100224.38;;;4.11;69.32
22753;BME280;11543;43.144;24.684;2023-02-16T00:42:23;100236.31;;;4.20;69.33
22753;BME280;11543;43.144;24.684;2023-02-16T00:44:53;100224.38;;;3.94;69.39
22753;BME280;11543;43.144;24.684;2023-02-16T00:47:37;100183.81;;;3.57;69.50
22753;BME280;11543;43.144;24.684;2023-02-16T00:50:25;100228.06;;;3.91;70.18
22753;BME280;11543;43.144;24.684;2023-02-16T00:52:51;100206.75;;;3.75;70.26
22753;BME280;11543;43.144;24.684;2023-02-16T00:55:19;100225.56;;;3.88;70.57
22753;BME280;11543;43.144;24.684;2023-02-16T01:00:26;100216.75;;;3.88;70.93
22753;BME280;11543;43.144;24.684;2023-02-16T01:02:55;100182.31;;;3.69;70.96
22753;BME280;11543;43.144;24.684;2023-02-16T01:05:21;100189.34;;;3.87;70.61
22753;BME280;11543;43.144;24.684;2023-02-16T01:07:47;100228.13;;;4.07;70.87
22753;BME280;11543;43.144;24.684;2023-02-16T01:10:31;100223.72;;;4.23;70.96
22753;BME280;11543;43.144;24.684;2023-02-16T01:13:16;100219.63;;;4.33;70.38
22753;BME280;11543;43.144;24.684;2023-02-16T01:15:42;100193.41;;;4.27;70.25
22753;BME280;11543;43.144;24.684;2023-02-16T01:18:09;100217.72;;;4.53;69.76
22753;BME280;11543;43.144;24.684;2023-02-16T01:20:36;100201.78;;;4.53;69.40
22753;BME280;11543;43.144;24.684;2023-02-16T01:23:01;100208.31;;;4.63;69.32
22753;BME280;11543;43.144;24.684;2023-02-16T01:25:27;100190.97;;;4.56;68.99
22753;BME280;11543;43.144;24.684;2023-02-16T01:27:53;100193.31;;;4.62;68.61
22753;BME280;11543;43.144;24.684;2023-02-16T01:30:21;100211.84;;;4.79;68.62
22753;BME280;11543;43.144;24.684;2023-02-16T01:32:47;100208.41;;;4.77;68.21
22753;BME280;11543;43.144;24.684;2023-02-16T01:35:34;100186.09;;;4.64;68.20
22753;BME280;11543;43.144;24.684;2023-02-16T01:37:59;100173.75;;;4.63;68.18
22753;BME280;11543;43.144;24.684;2023-02-16T01:43:07;100192.78;;;4.71;68.07
22753;BME280;11543;43.144;24.684;2023-02-16T01:45:37;100173.91;;;4.60;67.90
22753;BME280;11543;43.144;24.684;2023-02-16T01:48:06;100178.91;;;4.66;67.73
22753;BME280;11543;43.144;24.684;2023-02-16T01:53:30;100196.91;;;4.76;67.71
22753;BME280;11543;43.144;24.684;2023-02-16T01:56:02;100184.81;;;4.71;67.59
22753;BME280;11543;43.144;24.684;2023-02-16T01:58:36;100201.03;;;4.82;67.48
22753;BME280;11543;43.144;24.684;2023-02-16T02:03:33;100194.50;;;4.72;67.25
22753;BME280;11543;43.144;24.684;2023-02-16T02:06:25;100189.00;;;4.59;67.34
22753;BME280;11543;43.144;24.684;2023-02-16T02:09:13;100177.16;;;4.49;67.46
22753;BME280;11543;43.144;24.684;2023-02-16T02:11:48;100181.63;;;4.48;67.71
22753;BME280;11543;43.144;24.684;2023-02-16T02:14:19;100180.25;;;4.41;68.12
22753;BME280;11543;43.144;24.684;2023-02-16T02:17:05;100172.88;;;4.46;68.18
22753;BME280;11543;43.144;24.684;2023-02-16T02:19:53;100135.28;;;4.21;67.96
22753;BME280;11543;43.144;24.684;2023-02-16T02:25:36;100183.94;;;4.55;68.09
22753;BME280;11543;43.144;24.684;2023-02-16T02:28:25;100155.56;;;4.39;67.57
22753;BME280;11543;43.144;24.684;2023-02-16T02:34:02;100151.09;;;4.40;67.45
22753;BME280;11543;43.144;24.684;2023-02-16T02:36:37;100110.44;;;4.22;67.58
22753;BME280;11543;43.144;24.684;2023-02-16T02:44:29;100163.38;;;4.42;67.46
22753;BME280;11543;43.144;24.684;2023-02-16T02:46:56;100111.09;;;4.10;67.03
22753;BME280;11543;43.144;24.684;2023-02-16T02:49:21;100159.63;;;4.29;67.46
22753;BME280;11543;43.144;24.684;2023-02-16T02:51:48;100141.91;;;3.97;67.84
22753;BME280;11543;43.144;24.684;2023-02-16T02:57:11;100144.00;;;3.57;68.49
22753;BME280;11543;43.144;24.684;2023-02-16T02:59:59;100186.00;;;3.66;69.15
22753;BME280;11543;43.144;24.684;2023-02-16T03:02:46;100156.81;;;3.49;69.70
22753;BME280;11543;43.144;24.684;2023-02-16T03:05:14;100186.31;;;3.77;69.58
22753;BME280;11543;43.144;24.684;2023-02-16T03:07:43;100165.84;;;3.79;69.27
22753;BME280;11543;43.144;24.684;2023-02-16T03:10:23;100176.53;;;3.95;68.97
22753;BME280;11543;43.144;24.684;2023-02-16T03:13:21;100146.47;;;3.77;68.82
22753;BME280;11543;43.144;24.684;2023-02-16T03:15:51;100154.75;;;3.89;68.94
22753;BME280;11543;43.144;24.684;2023-02-16T03:18:23;100151.00;;;3.93;68.32
22753;BME280;11543;43.144;24.684;2023-02-16T03:21:09;100160.41;;;3.98;68.39
22753;BME280;11543;43.144;24.684;2023-02-16T03:23:56;100170.34;;;3.95;68.82
22753;BME280;11543;43.144;24.684;2023-02-16T03:26:41;100166.44;;;4.02;68.69
22753;BME280;11543;43.144;24.684;2023-02-16T03:29:26;100148.56;;;3.88;68.84
22753;BME280;11543;43.144;24.684;2023-02-16T03:31:54;100158.34;;;3.88;68.61
22753;BME280;11543;43.144;24.684;2023-02-16T03:34:21;100180.34;;;3.90;68.47
22753;BME280;11543;43.144;24.684;2023-02-16T03:36:53;100167.34;;;3.68;68.95
22753;BME280;11543;43.144;24.684;2023-02-16T03:39:24;100148.16;;;3.63;69.03
22753;BME280;11543;43.144;24.684;2023-02-16T03:41:52;100189.88;;;3.94;68.99
22753;BME280;11543;43.144;24.684;2023-02-16T03:44:19;100151.97;;;3.74;68.66
22753;BME280;11543;43.144;24.684;2023-02-16T03:46:45;100171.44;;;3.91;68.39
22753;BME280;11543;43.144;24.684;2023-02-16T03:49:14;100194.63;;;4.04;68.16
22753;BME280;11543;43.144;24.684;2023-02-16T03:51:40;100190.94;;;4.07;68.06
22753;BME280;11543;43.144;24.684;2023-02-16T03:54:05;100175.81;;;3.92;67.76
22753;BME280;11543;43.144;24.684;2023-02-16T03:56:31;100174.44;;;3.84;68.17
22753;BME280;11543;43.144;24.684;2023-02-16T03:58:56;100176.78;;;3.73;68.41
22753;BME280;11543;43.144;24.684;2023-02-16T04:01:22;100174.69;;;3.63;68.27
22753;BME280;11543;43.144;24.684;2023-02-16T04:03:47;100165.25;;;3.57;68.62
22753;BME280;11543;43.144;24.684;2023-02-16T04:06:13;100166.81;;;3.61;68.27
22753;BME280;11543;43.144;24.684;2023-02-16T04:08:38;100176.63;;;3.76;68.75
22753;BME280;11543;43.144;24.684;2023-02-16T04:11:04;100182.09;;;3.73;68.22
22753;BME280;11543;43.144;24.684;2023-02-16T04:13:49;100173.72;;;3.81;68.39
22753;BME280;11543;43.144;24.684;2023-02-16T04:16:15;100167.72;;;3.77;68.16
22753;BME280;11543;43.144;24.684;2023-02-16T04:18:40;100175.28;;;3.85;68.09
22753;BME280;11543;43.144;24.684;2023-02-16T04:21:06;100174.59;;;3.81;67.68
22753;BME280;11543;43.144;24.684;2023-02-16T04:23:31;100149.88;;;3.64;67.51
22753;BME280;11543;43.144;24.684;2023-02-16T04:25:56;100146.50;;;3.60;67.91
22753;BME280;11543;43.144;24.684;2023-02-16T04:28:22;100175.78;;;3.59;68.06
22753;BME280;11543;43.144;24.684;2023-02-16T04:30:47;100165.53;;;3.34;68.54
22753;BME280;11543;43.144;24.684;2023-02-16T04:33:13;100177.97;;;3.14;68.80
22753;BME280;11543;43.144;24.684;2023-02-16T04:35:38;100174.66;;;2.92;69.13
22753;BME280;11543;43.144;24.684;2023-02-16T04:38:04;100170.03;;;2.78;69.84
22753;BME280;11543;43.144;24.684;2023-02-16T04:40:29;100180.22;;;2.69;70.17
22753;BME280;11543;43.144;24.684;2023-02-16T04:42:55;100175.75;;;2.50;70.42
22753;BME280;11543;43.144;24.684;2023-02-16T04:45:21;100199.91;;;2.63;70.83
22753;BME280;11543;43.144;24.684;2023-02-16T04:47:46;100175.75;;;2.50;71.18
22753;BME280;11543;43.144;24.684;2023-02-16T04:50:12;100187.94;;;2.54;71.73
22753;BME280;11543;43.144;24.684;2023-02-16T04:52:37;100128.09;;;2.32;71.50
22753;BME280;11543;43.144;24.684;2023-02-16T04:55:04;100188.38;;;2.83;71.54
22753;BME280;11543;43.144;24.684;2023-02-16T04:57:30;100141.97;;;2.55;71.27
22753;BME280;11543;43.144;24.684;2023-02-16T04:59:56;100126.94;;;2.37;71.31
22753;BME280;11543;43.144;24.684;2023-02-16T05:02:21;100166.34;;;2.64;71.49
22753;BME280;11543;43.144;24.684;2023-02-16T05:04:47;100168.31;;;2.59;71.49
22753;BME280;11543;43.144;24.684;2023-02-16T05:07:12;100173.31;;;2.46;71.15
22753;BME280;11543;43.144;24.684;2023-02-16T05:09:38;100158.06;;;2.32;71.23
22753;BME280;11543;43.144;24.684;2023-02-16T05:12:05;100145.97;;;2.08;71.25
22753;BME280;11543;43.144;24.684;2023-02-16T05:14:49;100178.66;;;2.07;71.80
22753;BME280;11543;43.144;24.684;2023-02-16T05:17:17;100150.66;;;1.82;72.17
22753;BME280;11543;43.144;24.684;2023-02-16T05:19:50;100131.84;;;1.68;71.94
22753;BME280;11543;43.144;24.684;2023-02-16T05:22:16;100163.81;;;1.84;72.21
22753;BME280;11543;43.144;24.684;2023-02-16T05:24:44;100148.94;;;1.81;73.30
22753;BME280;11543;43.144;24.684;2023-02-16T05:27:18;100157.09;;;1.96;73.17
22753;BME280;11543;43.144;24.684;2023-02-16T05:29:44;100169.00;;;2.06;72.53
22753;BME280;11543;43.144;24.684;2023-02-16T05:32:09;100160.69;;;1.95;73.25
22753;BME280;11543;43.144;24.684;2023-02-16T05:34:42;100174.25;;;2.26;73.20
22753;BME280;11543;43.144;24.684;2023-02-16T05:37:20;100182.78;;;2.51;72.57
22753;BME280;11543;43.144;24.684;2023-02-16T05:39:46;100199.56;;;2.71;72.46
22753;BME280;11543;43.144;24.684;2023-02-16T05:42:11;100195.38;;;2.84;71.97
22753;BME280;11543;43.144;24.684;2023-02-16T05:44:37;100197.53;;;2.95;71.48
22753;BME280;11543;43.144;24.684;2023-02-16T05:47:03;100178.25;;;2.91;71.40
22753;BME280;11543;43.144;24.684;2023-02-16T05:49:29;100218.41;;;3.19;70.62
22753;BME280;11543;43.144;24.684;2023-02-16T05:51:57;100187.97;;;3.09;70.63
22753;BME280;11543;43.144;24.684;2023-02-16T05:54:24;100180.31;;;3.03;70.32
22753;BME280;11543;43.144;24.684;2023-02-16T05:56:50;100175.63;;;3.08;70.42
22753;BME280;11543;43.144;24.684;2023-02-16T05:59:16;100182.19;;;3.18;70.39
22753;BME280;11543;43.144;24.684;2023-02-16T06:01:45;100151.78;;;3.08;69.61
22753;BME280;11543;43.144;24.684;2023-02-16T06:04:40;100148.91;;;3.13;69.77
22753;BME280;11543;43.144;24.684;2023-02-16T06:07:05;100134.06;;;3.09;69.58
22753;BME280;11543;43.144;24.684;2023-02-16T06:09:34;100146.88;;;3.18;69.58
22753;BME280;11543;43.144;24.684;2023-02-16T06:11:59;100160.84;;;3.22;69.42
22753;BME280;11543;43.144;24.684;2023-02-16T06:14:27;100206.84;;;3.57;69.51
22753;BME280;11543;43.144;24.684;2023-02-16T06:16:53;100221.13;;;3.71;69.40
22753;BME280;11543;43.144;24.684;2023-02-16T06:19:20;100188.34;;;3.55;69.19
22753;BME280;11543;43.144;24.684;2023-02-16T06:21:47;100177.72;;;3.55;69.26
22753;BME280;11543;43.144;24.684;2023-02-16T06:24:15;100205.28;;;3.70;69.52
22753;BME280;11543;43.144;24.684;2023-02-16T06:26:40;100201.16;;;3.64;69.41
22753;BME280;11543;43.144;24.684;2023-02-16T06:29:07;100194.19;;;3.62;69.46
22753;BME280;11543;43.144;24.684;2023-02-16T06:31:33;100219.09;;;3.76;69.60
22753;BME280;11543;43.144;24.684;2023-02-16T06:33:58;100221.59;;;3.62;69.85
22753;BME280;11543;43.144;24.684;2023-02-16T06:36:25;100181.94;;;3.06;69.73
22753;BME280;11543;43.144;24.684;2023-02-16T06:38:51;100242.91;;;3.25;70.34
22753;BME280;11543;43.144;24.684;2023-02-16T06:41:20;100178.44;;;2.69;70.97
22753;BME280;11543;43.144;24.684;2023-02-16T06:44:06;100213.44;;;2.95;71.88
22753;BME280;11543;43.144;24.684;2023-02-16T06:46:33;100167.75;;;2.71;72.44
22753;BME280;11543;43.144;24.684;2023-02-16T06:49:02;100171.03;;;2.76;73.08
22753;BME280;11543;43.144;24.684;2023-02-16T06:51:40;100175.44;;;2.94;73.12
22753;BME280;11543;43.144;24.684;2023-02-16T06:54:08;100203.34;;;3.20;72.78
22753;BME280;11543;43.144;24.684;2023-02-16T06:56:34;100192.31;;;3.10;72.47
22753;BME280;11543;43.144;24.684;2023-02-16T06:59:00;100170.56;;;3.04;72.89
22753;BME280;11543;43.144;24.684;2023-02-16T07:01:27;100230.75;;;3.38;72.43
22753;BME280;11543;43.144;24.684;2023-02-16T07:03:54;100218.72;;;3.31;73.07
22753;BME280;11543;43.144;24.684;2023-02-16T07:06:22;100220.66;;;3.27;73.26
22753;BME280;11543;43.144;24.684;2023-02-16T07:08:48;100217.94;;;3.29;73.88
22753;BME280;11543;43.144;24.684;2023-02-16T07:11:17;100192.03;;;3.16;74.22
22753;BME280;11543;43.144;24.684;2023-02-16T07:13:43;100203.59;;;3.33;73.74
22753;BME280;11543;43.144;24.684;2023-02-16T07:16:17;100219.06;;;3.42;73.85
22753;BME280;11543;43.144;24.684;2023-02-16T07:18:46;100210.47;;;3.37;74.06
22753;BME280;11543;43.144;24.684;2023-02-16T07:21:21;100184.06;;;3.16;74.24
22753;BME280;11543;43.144;24.684;2023-02-16T07:23:47;100217.97;;;3.46;74.33
22753;BME280;11543;43.144;24.684;2023-02-16T07:26:14;100163.47;;;3.22;74.51
22753;BME280;11543;43.144;24.684;2023-02-16T07:28:43;100209.16;;;3.45;74.72
22753;BME280;11543;43.144;24.684;2023-02-16T07:31:11;100207.00;;;3.54;74.67
22753;BME280;11543;43.144;24.684;2023-02-16T07:33:38;100183.47;;;3.46;74.46
22753;BME280;11543;43.144;24.684;2023-02-16T07:36:04;100191.78;;;3.57;74.26
22753;BME280;11543;43.144;24.684;2023-02-16T07:38:30;100230.09;;;3.86;74.25
22753;BME280;11543;43.144;24.684;2023-02-16T07:40:56;100224.47;;;3.92;73.96
22753;BME280;11543;43.144;24.684;2023-02-16T07:43:22;100189.25;;;3.89;73.96
22753;BME280;11543;43.144;24.684;2023-02-16T07:45:48;100243.16;;;4.24;73.29
22753;BME280;11543;43.144;24.684;2023-02-16T07:48:14;100192.56;;;4.09;72.92
22753;BME280;11543;43.144;24.684;2023-02-16T07:50:40;100221.22;;;4.37;73.30
22753;BME280;11543;43.144;24.684;2023-02-16T07:53:05;100215.75;;;4.40;72.81
22753;BME280;11543;43.144;24.684;2023-02-16T07:55:32;100192.44;;;4.28;72.52
22753;BME280;11543;43.144;24.684;2023-02-16T07:58:07;100195.59;;;4.36;72.80
22753;BME280;11543;43.144;24.684;2023-02-16T08:01:09;100158.50;;;4.18;73.12
22753;BME280;11543;43.144;24.684;2023-02-16T08:03:36;100145.13;;;4.19;73.01
22753;BME280;11543;43.144;24.684;2023-02-16T08:06:02;100175.78;;;4.42;72.50
22753;BME280;11543;43.144;24.684;2023-02-16T08:08:28;100153.06;;;4.36;72.71
22753;BME280;11543;43.144;24.684;2023-02-16T08:10:54;100148.84;;;4.32;72.99
22753;BME280;11543;43.144;24.684;2023-02-16T08:13:20;100178.03;;;4.50;72.99
22753;BME280;11543;43.144;24.684;2023-02-16T08:15:47;100181.19;;;4.40;72.95
22753;BME280;11543;43.144;24.684;2023-02-16T08:18:15;100189.25;;;4.55;73.49
22753;BME280;11543;43.144;24.684;2023-02-16T08:20:41;100162.19;;;4.31;73.56
22753;BME280;11543;43.144;24.684;2023-02-16T08:23:06;100147.97;;;4.16;73.72
22753;BME280;11543;43.144;24.684;2023-02-16T08:25:38;100167.31;;;4.18;74.52
22753;BME280;11543;43.144;24.684;2023-02-16T08:28:04;100156.69;;;4.18;74.54
22753;BME280;11543;43.144;24.684;2023-02-16T08:30:32;100208.56;;;4.58;74.72
22753;BME280;11543;43.144;24.684;2023-02-16T08:32:59;100182.50;;;4.49;75.05
22753;BME280;11543;43.144;24.684;2023-02-16T08:35:27;100164.38;;;4.40;74.46
22753;BME280;11543;43.144;24.684;2023-02-16T08:37:55;100184.03;;;4.69;75.32
22753;BME280;11543;43.144;24.684;2023-02-16T08:40:20;100180.97;;;4.76;75.31
22753;BME280;11543;43.144;24.684;2023-02-16T08:42:49;100201.53;;;5.04;74.75
22753;BME280;11543;43.144;24.684;2023-02-16T08:45:15;100165.00;;;4.92;74.67
22753;BME280;11543;43.144;24.684;2023-02-16T08:47:42;100181.63;;;5.11;74.53
22753;BME280;11543;43.144;24.684;2023-02-16T08:50:08;100183.69;;;5.22;73.95
22753;BME280;11543;43.144;24.684;2023-02-16T08:52:36;100174.00;;;5.21;74.59
22753;BME280;11543;43.144;24.684;2023-02-16T08:55:03;100190.88;;;5.36;75.10
22753;BME280;11543;43.144;24.684;2023-02-16T08:57:32;100192.41;;;5.40;74.70
22753;BME280;11543;43.144;24.684;2023-02-16T08:59:58;100172.00;;;5.25;74.42
22753;BME280;11543;43.144;24.684;2023-02-16T09:02:42;100167.00;;;5.19;74.48
22753;BME280;11543;43.144;24.684;2023-02-16T09:05:07;100191.59;;;5.24;74.94
22753;BME280;11543;43.144;24.684;2023-02-16T09:07:32;100167.72;;;5.06;75.26
22753;BME280;11543;43.144;24.684;2023-02-16T09:10:00;100174.59;;;5.10;75.35
22753;BME280;11543;43.144;24.684;2023-02-16T09:12:26;100187.53;;;5.17;75.32
22753;BME280;11543;43.144;24.684;2023-02-16T09:14:54;100198.63;;;5.25;75.02
22753;BME280;11543;43.144;24.684;2023-02-16T09:17:19;100176.81;;;5.18;75.65
22753;BME280;11543;43.144;24.684;2023-02-16T09:19:45;100164.44;;;5.33;76.48
22753;BME280;11543;43.144;24.684;2023-02-16T09:22:10;100165.66;;;5.57;77.46
22753;BME280;11543;43.144;24.684;2023-02-16T09:24:36;100176.53;;;5.83;76.88
22753;BME280;11543;43.144;24.684;2023-02-16T09:27:01;100160.34;;;5.71;76.33
22753;BME280;11543;43.144;24.684;2023-02-16T09:29:28;100167.59;;;5.69;75.57
22753;BME280;11543;43.144;24.684;2023-02-16T09:31:53;100165.09;;;5.66;75.26
22753;BME280;11543;43.144;24.684;2023-02-16T09:34:21;100160.53;;;5.68;74.51
22753;BME280;11543;43.144;24.684;2023-02-16T09:36:47;100175.97;;;5.78;74.97
22753;BME280;11543;43.144;24.684;2023-02-16T09:39:13;100172.16;;;5.82;74.55
22753;BME280;11543;43.144;24.684;2023-02-16T09:42:09;100152.56;;;5.83;74.68
22753;BME280;11543;43.144;24.684;2023-02-16T09:44:49;100136.44;;;6.00;75.32
22753;BME280;11543;43.144;24.684;2023-02-16T09:47:25;100169.03;;;6.33;74.85
22753;BME280;11543;43.144;24.684;2023-02-16T09:50:05;100099.56;;;6.08;74.43
22753;BME280;11543;43.144;24.684;2023-02-16T09:52:38;100126.19;;;6.36;74.23
22753;BME280;11543;43.144;24.684;2023-02-16T09:55:13;100107.13;;;6.43;74.30
22753;BME280;11543;43.144;24.684;2023-02-16T09:58:04;100121.78;;;6.50;74.31
22753;BME280;11543;43.144;24.684;2023-02-16T10:06:41;100143.19;;;7.03;72.71
22753;BME280;11543;43.144;24.684;2023-02-16T10:09:16;100124.31;;;7.07;72.60
22753;BME280;11543;43.144;24.684;2023-02-16T10:12:12;100121.31;;;7.51;73.48
22753;BME280;11543;43.144;24.684;2023-02-16T10:17:10;100119.44;;;8.16;70.49
22753;BME280;11543;43.144;24.684;2023-02-16T10:25:28;100105.97;;;8.05;70.28
22753;BME280;11543;43.144;24.684;2023-02-16T10:28:16;100094.22;;;8.08;71.06
22753;BME280;11543;43.144;24.684;2023-02-16T10:31:11;100112.81;;;8.35;70.53
22753;BME280;11543;43.144;24.684;2023-02-16T10:33:43;100092.91;;;8.39;70.88
22753;BME280;11543;43.144;24.684;2023-02-16T10:41:56;100068.31;;;8.70;69.40
22753;BME280;11543;43.144;24.684;2023-02-16T10:44:32;100104.47;;;9.00;69.14
22753;BME280;11543;43.144;24.684;2023-02-16T10:47:02;100074.28;;;8.98;68.94
22753;BME280;11543;43.144;24.684;2023-02-16T10:49:30;100082.59;;;9.06;68.52
22753;BME280;11543;43.144;24.684;2023-02-16T10:51:58;100056.28;;;9.00;68.24
22753;BME280;11543;43.144;24.684;2023-02-16T10:54:30;100068.78;;;9.23;67.11
22753;BME280;11543;43.144;24.684;2023-02-16T10:57:00;100084.00;;;9.57;67.54
22753;BME280;11543;43.144;24.684;2023-02-16T10:59:36;100063.81;;;9.65;67.74
22753;BME280;11543;43.144;24.684;2023-02-16T11:02:15;100060.41;;;9.74;66.20
22753;BME280;11543;43.144;24.684;2023-02-16T11:04:45;100049.69;;;9.74;65.89
22753;BME280;11543;43.144;24.684;2023-02-16T11:07:15;100058.22;;;9.90;64.91
22753;BME280;11543;43.144;24.684;2023-02-16T11:09:42;100064.56;;;10.00;64.23
22753;BME280;11543;43.144;24.684;2023-02-16T11:12:25;100047.50;;;10.01;63.78
22753;BME280;11543;43.144;24.684;2023-02-16T11:17:59;100041.66;;;10.18;63.28
22753;BME280;11543;43.144;24.684;2023-02-16T11:23:31;100032.66;;;10.42;61.38
22753;BME280;11543;43.144;24.684;2023-02-16T11:28:44;100037.50;;;10.59;61.28
22753;BME280;11543;43.144;24.684;2023-02-16T11:31:36;100034.47;;;10.84;61.02
22753;BME280;11543;43.144;24.684;2023-02-16T11:36:44;100022.44;;;11.00;60.31
22753;BME280;11543;43.144;24.684;2023-02-16T11:39:22;99990.75;;;10.94;59.71
22753;BME280;11543;43.144;24.684;2023-02-16T11:41:54;100003.84;;;11.08;59.64
22753;BME280;11543;43.144;24.684;2023-02-16T11:44:37;100023.69;;;11.28;59.85
22753;BME280;11543;43.144;24.684;2023-02-16T11:47:30;100004.47;;;11.32;59.36
22753;BME280;11543;43.144;24.684;2023-02-16T11:50:23;99994.91;;;11.39;58.70
22753;BME280;11543;43.144;24.684;2023-02-16T11:52:57;99999.69;;;11.57;58.38
22753;BME280;11543;43.144;24.684;2023-02-16T11:55:40;99983.56;;;11.57;59.48
22753;BME280;11543;43.144;24.684;2023-02-16T11:58:16;99975.13;;;11.71;58.79
22753;BME280;11543;43.144;24.684;2023-02-16T12:01:00;99993.94;;;11.92;59.25
22753;BME280;11543;43.144;24.684;2023-02-16T12:09:12;99981.88;;;12.17;55.94
22753;BME280;11543;43.144;24.684;2023-02-16T12:15:11;99969.28;;;12.27;56.55
22753;BME280;11543;43.144;24.684;2023-02-16T12:17:51;99956.69;;;12.37;58.10
22753;BME280;11543;43.144;24.684;2023-02-16T12:22:48;99948.50;;;12.58;55.96
22753;BME280;11543;43.144;24.684;2023-02-16T12:31:20;99925.53;;;12.63;54.25
22753;BME280;11543;43.144;24.684;2023-02-16T12:33:30;99943.25;;;12.75;54.69
22753;BME280;11543;43.144;24.684;2023-02-16T12:36:25;99931.78;;;12.73;53.76
22753;BME280;11543;43.144;24.684;2023-02-16T12:44:15;99930.34;;;13.27;53.08
22753;BME280;11543;43.144;24.684;2023-02-16T12:46:45;99915.03;;;13.18;52.34
22753;BME280;11543;43.144;24.684;2023-02-16T12:49:16;99924.91;;;13.37;52.55
22753;BME280;11543;43.144;24.684;2023-02-16T12:51:52;99898.00;;;13.27;51.07
22753;BME280;11543;43.144;24.684;2023-02-16T12:56:49;99884.13;;;13.22;48.96
22753;BME280;11543;43.144;24.684;2023-02-16T13:02:19;99878.34;;;13.45;52.22
22753;BME280;11543;43.144;24.684;2023-02-16T13:12:25;99857.63;;;14.45;50.96
22753;BME280;11543;43.144;24.684;2023-02-16T13:15:23;99860.13;;;14.29;48.03
22753;BME280;11543;43.144;24.684;2023-02-16T13:31:28;99869.84;;;14.22;48.21
22753;BME280;11543;43.144;24.684;2023-02-16T13:40:27;99849.09;;;14.05;47.15
22753;BME280;11543;43.144;24.684;2023-02-16T13:45:47;99846.69;;;14.01;47.08
22753;BME280;11543;43.144;24.684;2023-02-16T13:48:50;99814.28;;;13.84;47.28
22753;BME280;11543;43.144;24.684;2023-02-16T13:51:38;99806.78;;;13.78;47.80
22753;BME280;11543;43.144;24.684;2023-02-16T13:57:11;99825.06;;;13.84;47.77
22753;BME280;11543;43.144;24.684;2023-02-16T13:59:46;99848.31;;;13.94;47.77
22753;BME280;11543;43.144;24.684;2023-02-16T14:19:31;99827.81;;;13.74;44.10
22753;BME280;11543;43.144;24.684;2023-02-16T14:22:10;99856.28;;;13.86;43.49
22753;BME280;11543;43.144;24.684;2023-02-16T14:24:37;99823.78;;;13.60;43.99
22753;BME280;11543;43.144;24.684;2023-02-16T14:30:45;99846.78;;;13.82;44.16
22753;BME280;11543;43.144;24.684;2023-02-16T14:33:59;99787.59;;;13.35;41.55
22753;BME280;11543;43.144;24.684;2023-02-16T14:36:26;99798.97;;;13.29;41.47
22753;BME280;11543;43.144;24.684;2023-02-16T14:42:50;99822.16;;;13.50;44.09
22753;BME280;11543;43.144;24.684;2023-02-16T14:45:36;99784.81;;;13.27;44.99
22753;BME280;11543;43.144;24.684;2023-02-16T15:00:14;99817.91;;;13.10;45.38
22753;BME280;11543;43.144;24.684;2023-02-16T15:03:03;99842.13;;;13.20;45.25
22753;BME280;11543;43.144;24.684;2023-02-16T15:05:35;99828.13;;;12.97;46.02
22753;BME280;11543;43.144;24.684;2023-02-16T15:08:15;99794.88;;;12.69;46.29
22753;BME280;11543;43.144;24.684;2023-02-16T15:10:43;99848.25;;;12.93;46.52
22753;BME280;11543;43.144;24.684;2023-02-16T15:13:31;99801.16;;;12.50;47.37
22753;BME280;11543;43.144;24.684;2023-02-16T15:16:17;99792.25;;;12.40;47.24
22753;BME280;11543;43.144;24.684;2023-02-16T15:19:27;99851.84;;;12.64;47.84
22753;BME280;11543;43.144;24.684;2023-02-16T15:35:39;99858.59;;;11.91;49.90
22753;BME280;11543;43.144;24.684;2023-02-16T15:42:31;99854.88;;;11.73;50.40
22753;BME280;11543;43.144;24.684;2023-02-16T15:45:38;99797.03;;;11.29;50.01
22753;BME280;11543;43.144;24.684;2023-02-16T15:54:33;99788.19;;;11.17;50.85
22753;BME280;11543;43.144;24.684;2023-02-16T15:57:25;99781.13;;;11.16;50.64
22753;BME280;11543;43.144;24.684;2023-02-16T15:59:58;99832.97;;;11.37;50.68
22753;BME280;11543;43.144;24.684;2023-02-16T16:05:21;99833.16;;;11.55;52.47
22753;BME280;11543;43.144;24.684;2023-02-16T16:07:47;99838.13;;;11.60;52.93
22753;BME280;11543;43.144;24.684;2023-02-16T16:10:33;99844.38;;;11.70;52.39
22753;BME280;11543;43.144;24.684;2023-02-16T16:13:22;99818.59;;;11.58;52.05
22753;BME280;11543;43.144;24.684;2023-02-16T16:15:53;99800.19;;;11.43;52.01
22753;BME280;11543;43.144;24.684;2023-02-16T16:18:47;99800.47;;;11.50;51.41
22753;BME280;11543;43.144;24.684;2023-02-16T16:24:06;99846.63;;;11.65;51.12